sensor_id;sensor_type;location;lat;lon;timestamp;P1;durP1;ratioP1;P2;durP2;ratioP2
80776;SDS011;70169;51.262;6.336;2023-06-26T00:00:52;8.33;;;7.47;;
80776;SDS011;70169;51.262;6.336;2023-06-26T00:03:07;7.17;;;5.87;;
80776;SDS011;70169;51.262;6.336;2023-06-26T00:05:22;8.77;;;6.10;;
80776;SDS011;70169;51.262;6.336;2023-06-26T00:07:37;7.20;;;5.73;;
80776;SDS011;70169;51.262;6.336;2023-06-26T00:09:53;5.70;;;5.10;;
80776;SDS011;70169;51.262;6.336;2023-06-26T00:12:08;5.83;;;5.23;;
80776;SDS011;70169;51.262;6.336;2023-06-26T00:14:23;6.72;;;6.13;;
80776;SDS011;70169;51.262;6.336;2023-06-26T00:16:39;6.03;;;5.23;;
80776;SDS011;70169;51.262;6.336;2023-06-26T00:18:55;6.55;;;5.50;;
80776;SDS011;70169;51.262;6.336;2023-06-26T00:21:10;6.07;;;5.30;;
80776;SDS011;70169;51.262;6.336;2023-06-26T00:23:25;6.13;;;5.33;;
80776;SDS011;70169;51.262;6.336;2023-06-26T00:25:42;6.75;;;5.53;;
80776;SDS011;70169;51.262;6.336;2023-06-26T00:27:58;6.95;;;6.20;;
80776;SDS011;70169;51.262;6.336;2023-06-26T00:30:13;6.45;;;5.68;;
80776;SDS011;70169;51.262;6.336;2023-06-26T00:32:28;7.23;;;6.20;;
80776;SDS011;70169;51.262;6.336;2023-06-26T00:34:44;7.50;;;6.40;;
80776;SDS011;70169;51.262;6.336;2023-06-26T00:37:00;7.40;;;5.93;;
80776;SDS011;70169;51.262;6.336;2023-06-26T00:39:15;7.20;;;5.87;;
80776;SDS011;70169;51.262;6.336;2023-06-26T00:41:31;5.80;;;4.90;;
80776;SDS011;70169;51.262;6.336;2023-06-26T00:43:46;6.17;;;5.37;;
80776;SDS011;70169;51.262;6.336;2023-06-26T00:46:01;7.33;;;5.97;;
80776;SDS011;70169;51.262;6.336;2023-06-26T00:48:17;7.87;;;5.90;;
80776;SDS011;70169;51.262;6.336;2023-06-26T00:50:33;6.32;;;5.13;;
80776;SDS011;70169;51.262;6.336;2023-06-26T00:52:49;7.15;;;5.57;;
80776;SDS011;70169;51.262;6.336;2023-06-26T00:55:04;7.10;;;5.77;;
80776;SDS011;70169;51.262;6.336;2023-06-26T00:57:20;7.13;;;5.75;;
80776;SDS011;70169;51.262;6.336;2023-06-26T00:59:35;7.80;;;6.60;;
80776;SDS011;70169;51.262;6.336;2023-06-26T01:01:51;6.78;;;5.47;;
80776;SDS011;70169;51.262;6.336;2023-06-26T01:04:06;6.90;;;5.45;;
80776;SDS011;70169;51.262;6.336;2023-06-26T01:06:22;6.80;;;5.63;;
80776;SDS011;70169;51.262;6.336;2023-06-26T01:08:39;6.38;;;5.28;;
80776;SDS011;70169;51.262;6.336;2023-06-26T01:10:56;6.95;;;5.82;;
80776;SDS011;70169;51.262;6.336;2023-06-26T01:13:12;7.22;;;5.38;;
80776;SDS011;70169;51.262;6.336;2023-06-26T01:17:43;8.17;;;6.57;;
80776;SDS011;70169;51.262;6.336;2023-06-26T01:20:00;8.60;;;6.68;;
80776;SDS011;70169;51.262;6.336;2023-06-26T01:22:19;6.75;;;5.65;;
80776;SDS011;70169;51.262;6.336;2023-06-26T01:24:53;7.40;;;5.97;;
80776;SDS011;70169;51.262;6.336;2023-06-26T01:27:18;7.05;;;5.63;;
80776;SDS011;70169;51.262;6.336;2023-06-26T01:29:37;7.13;;;5.22;;
80776;SDS011;70169;51.262;6.336;2023-06-26T01:31:53;6.80;;;5.97;;
80776;SDS011;70169;51.262;6.336;2023-06-26T01:34:08;6.50;;;5.60;;
80776;SDS011;70169;51.262;6.336;2023-06-26T01:36:25;6.65;;;5.28;;
80776;SDS011;70169;51.262;6.336;2023-06-26T01:38:40;6.50;;;5.80;;
80776;SDS011;70169;51.262;6.336;2023-06-26T01:40:55;6.93;;;5.57;;
80776;SDS011;70169;51.262;6.336;2023-06-26T01:45:43;8.10;;;6.55;;
80776;SDS011;70169;51.262;6.336;2023-06-26T01:48:00;7.38;;;5.85;;
80776;SDS011;70169;51.262;6.336;2023-06-26T01:50:18;7.93;;;6.82;;
80776;SDS011;70169;51.262;6.336;2023-06-26T01:52:41;7.28;;;5.85;;
80776;SDS011;70169;51.262;6.336;2023-06-26T01:55:05;6.78;;;5.35;;
80776;SDS011;70169;51.262;6.336;2023-06-26T01:57:31;6.22;;;5.00;;
80776;SDS011;70169;51.262;6.336;2023-06-26T01:59:47;7.72;;;6.30;;
80776;SDS011;70169;51.262;6.336;2023-06-26T02:02:02;7.13;;;6.25;;
80776;SDS011;70169;51.262;6.336;2023-06-26T02:04:22;7.95;;;6.60;;
80776;SDS011;70169;51.262;6.336;2023-06-26T02:06:37;8.57;;;7.20;;
80776;SDS011;70169;51.262;6.336;2023-06-26T02:08:52;7.37;;;6.43;;
80776;SDS011;70169;51.262;6.336;2023-06-26T02:11:07;8.83;;;7.27;;
80776;SDS011;70169;51.262;6.336;2023-06-26T02:13:23;9.70;;;7.73;;
80776;SDS011;70169;51.262;6.336;2023-06-26T02:15:39;9.07;;;7.90;;
80776;SDS011;70169;51.262;6.336;2023-06-26T02:17:54;8.27;;;7.38;;
80776;SDS011;70169;51.262;6.336;2023-06-26T02:20:09;7.53;;;6.63;;
80776;SDS011;70169;51.262;6.336;2023-06-26T02:22:25;8.30;;;6.47;;
80776;SDS011;70169;51.262;6.336;2023-06-26T02:24:41;9.50;;;7.72;;
80776;SDS011;70169;51.262;6.336;2023-06-26T02:26:57;8.88;;;7.78;;
80776;SDS011;70169;51.262;6.336;2023-06-26T02:29:12;8.63;;;7.25;;
80776;SDS011;70169;51.262;6.336;2023-06-26T02:31:27;8.03;;;7.20;;
80776;SDS011;70169;51.262;6.336;2023-06-26T02:33:43;9.20;;;6.90;;
80776;SDS011;70169;51.262;6.336;2023-06-26T02:36:00;9.57;;;7.22;;
80776;SDS011;70169;51.262;6.336;2023-06-26T02:38:16;8.13;;;7.28;;
80776;SDS011;70169;51.262;6.336;2023-06-26T02:40:31;9.30;;;7.47;;
80776;SDS011;70169;51.262;6.336;2023-06-26T02:42:47;8.85;;;7.47;;
80776;SDS011;70169;51.262;6.336;2023-06-26T02:45:02;8.30;;;7.43;;
80776;SDS011;70169;51.262;6.336;2023-06-26T02:47:18;7.72;;;6.82;;
80776;SDS011;70169;51.262;6.336;2023-06-26T02:49:33;8.70;;;7.23;;
80776;SDS011;70169;51.262;6.336;2023-06-26T02:51:48;8.90;;;7.97;;
80776;SDS011;70169;51.262;6.336;2023-06-26T02:54:04;11.13;;;8.07;;
80776;SDS011;70169;51.262;6.336;2023-06-26T02:56:19;9.13;;;7.80;;
80776;SDS011;70169;51.262;6.336;2023-06-26T02:58:34;9.47;;;7.57;;
80776;SDS011;70169;51.262;6.336;2023-06-26T03:00:50;8.73;;;7.67;;
80776;SDS011;70169;51.262;6.336;2023-06-26T03:03:05;10.32;;;8.02;;
80776;SDS011;70169;51.262;6.336;2023-06-26T03:05:20;10.23;;;8.73;;
80776;SDS011;70169;51.262;6.336;2023-06-26T03:07:36;9.70;;;8.70;;
80776;SDS011;70169;51.262;6.336;2023-06-26T03:09:51;11.73;;;8.47;;
80776;SDS011;70169;51.262;6.336;2023-06-26T03:12:07;10.10;;;8.37;;
80776;SDS011;70169;51.262;6.336;2023-06-26T03:14:22;9.82;;;8.40;;
80776;SDS011;70169;51.262;6.336;2023-06-26T03:16:38;9.93;;;8.27;;
80776;SDS011;70169;51.262;6.336;2023-06-26T03:18:53;9.85;;;8.52;;
80776;SDS011;70169;51.262;6.336;2023-06-26T03:21:09;9.17;;;8.07;;
80776;SDS011;70169;51.262;6.336;2023-06-26T03:23:24;10.18;;;8.18;;
80776;SDS011;70169;51.262;6.336;2023-06-26T03:25:40;11.00;;;8.13;;
80776;SDS011;70169;51.262;6.336;2023-06-26T03:27:55;9.57;;;7.80;;
80776;SDS011;70169;51.262;6.336;2023-06-26T03:30:11;9.17;;;7.70;;
80776;SDS011;70169;51.262;6.336;2023-06-26T03:32:26;9.75;;;7.63;;
80776;SDS011;70169;51.262;6.336;2023-06-26T03:34:42;9.63;;;7.53;;
80776;SDS011;70169;51.262;6.336;2023-06-26T03:36:57;9.73;;;7.37;;
80776;SDS011;70169;51.262;6.336;2023-06-26T03:39:12;9.13;;;6.67;;
80776;SDS011;70169;51.262;6.336;2023-06-26T03:41:28;8.83;;;6.97;;
80776;SDS011;70169;51.262;6.336;2023-06-26T03:43:43;9.33;;;6.63;;
80776;SDS011;70169;51.262;6.336;2023-06-26T03:45:58;8.83;;;6.20;;
80776;SDS011;70169;51.262;6.336;2023-06-26T03:48:13;7.60;;;6.57;;
80776;SDS011;70169;51.262;6.336;2023-06-26T03:50:29;8.15;;;6.63;;
80776;SDS011;70169;51.262;6.336;2023-06-26T03:52:44;7.63;;;5.60;;
80776;SDS011;70169;51.262;6.336;2023-06-26T03:55:00;8.25;;;5.40;;
80776;SDS011;70169;51.262;6.336;2023-06-26T03:57:16;8.60;;;5.75;;
80776;SDS011;70169;51.262;6.336;2023-06-26T03:59:31;8.10;;;5.67;;
80776;SDS011;70169;51.262;6.336;2023-06-26T04:01:46;6.47;;;5.15;;
80776;SDS011;70169;51.262;6.336;2023-06-26T04:04:02;8.47;;;5.23;;
80776;SDS011;70169;51.262;6.336;2023-06-26T04:06:18;6.88;;;5.18;;
80776;SDS011;70169;51.262;6.336;2023-06-26T04:08:33;8.43;;;5.37;;
80776;SDS011;70169;51.262;6.336;2023-06-26T04:10:48;9.47;;;5.63;;
80776;SDS011;70169;51.262;6.336;2023-06-26T04:13:06;7.25;;;5.03;;
80776;SDS011;70169;51.262;6.336;2023-06-26T04:15:22;7.00;;;5.00;;
80776;SDS011;70169;51.262;6.336;2023-06-26T04:17:37;9.83;;;5.67;;
80776;SDS011;70169;51.262;6.336;2023-06-26T04:19:52;10.43;;;5.00;;
80776;SDS011;70169;51.262;6.336;2023-06-26T04:22:08;7.80;;;5.83;;
80776;SDS011;70169;51.262;6.336;2023-06-26T04:24:23;6.57;;;5.13;;
80776;SDS011;70169;51.262;6.336;2023-06-26T04:26:38;6.47;;;5.03;;
80776;SDS011;70169;51.262;6.336;2023-06-26T04:28:56;7.25;;;5.00;;
80776;SDS011;70169;51.262;6.336;2023-06-26T04:31:11;7.30;;;5.33;;
80776;SDS011;70169;51.262;6.336;2023-06-26T04:33:26;7.30;;;4.97;;
80776;SDS011;70169;51.262;6.336;2023-06-26T04:35:42;7.72;;;5.40;;
80776;SDS011;70169;51.262;6.336;2023-06-26T04:37:59;8.65;;;5.65;;
80776;SDS011;70169;51.262;6.336;2023-06-26T04:40:16;7.95;;;4.72;;
80776;SDS011;70169;51.262;6.336;2023-06-26T04:42:31;5.90;;;4.33;;
80776;SDS011;70169;51.262;6.336;2023-06-26T04:44:47;8.27;;;5.10;;
80776;SDS011;70169;51.262;6.336;2023-06-26T04:47:03;6.32;;;4.30;;
80776;SDS011;70169;51.262;6.336;2023-06-26T04:49:18;8.13;;;5.10;;
80776;SDS011;70169;51.262;6.336;2023-06-26T04:51:35;5.85;;;4.22;;
80776;SDS011;70169;51.262;6.336;2023-06-26T04:53:56;6.82;;;4.80;;
80776;SDS011;70169;51.262;6.336;2023-06-26T04:56:11;6.33;;;4.53;;
80776;SDS011;70169;51.262;6.336;2023-06-26T04:58:27;9.00;;;4.83;;
80776;SDS011;70169;51.262;6.336;2023-06-26T05:00:42;8.07;;;5.30;;
80776;SDS011;70169;51.262;6.336;2023-06-26T05:02:58;6.68;;;4.75;;
80776;SDS011;70169;51.262;6.336;2023-06-26T05:05:16;7.20;;;5.13;;
80776;SDS011;70169;51.262;6.336;2023-06-26T05:07:31;8.53;;;5.37;;
80776;SDS011;70169;51.262;6.336;2023-06-26T05:09:47;8.73;;;5.30;;
80776;SDS011;70169;51.262;6.336;2023-06-26T05:12:02;6.90;;;4.60;;
80776;SDS011;70169;51.262;6.336;2023-06-26T05:14:18;7.25;;;4.57;;
80776;SDS011;70169;51.262;6.336;2023-06-26T05:16:33;7.97;;;4.77;;
80776;SDS011;70169;51.262;6.336;2023-06-26T05:18:49;7.30;;;5.00;;
80776;SDS011;70169;51.262;6.336;2023-06-26T05:21:04;6.57;;;4.50;;
80776;SDS011;70169;51.262;6.336;2023-06-26T05:23:20;6.38;;;5.00;;
80776;SDS011;70169;51.262;6.336;2023-06-26T05:25:37;7.22;;;4.78;;
80776;SDS011;70169;51.262;6.336;2023-06-26T05:27:52;7.15;;;4.53;;
80776;SDS011;70169;51.262;6.336;2023-06-26T05:30:08;7.30;;;4.82;;
80776;SDS011;70169;51.262;6.336;2023-06-26T05:32:24;7.75;;;4.88;;
80776;SDS011;70169;51.262;6.336;2023-06-26T05:34:40;8.38;;;4.70;;
80776;SDS011;70169;51.262;6.336;2023-06-26T05:36:57;7.38;;;4.65;;
80776;SDS011;70169;51.262;6.336;2023-06-26T05:39:14;8.27;;;4.95;;
80776;SDS011;70169;51.262;6.336;2023-06-26T05:41:29;7.72;;;4.72;;
80776;SDS011;70169;51.262;6.336;2023-06-26T05:43:45;8.38;;;5.18;;
80776;SDS011;70169;51.262;6.336;2023-06-26T05:46:00;7.90;;;4.90;;
80776;SDS011;70169;51.262;6.336;2023-06-26T05:48:15;8.17;;;5.37;;
80776;SDS011;70169;51.262;6.336;2023-06-26T05:50:31;9.48;;;4.90;;
80776;SDS011;70169;51.262;6.336;2023-06-26T05:52:46;7.43;;;4.75;;
80776;SDS011;70169;51.262;6.336;2023-06-26T05:55:02;9.40;;;4.80;;
80776;SDS011;70169;51.262;6.336;2023-06-26T05:57:18;8.80;;;5.43;;
80776;SDS011;70169;51.262;6.336;2023-06-26T05:59:34;9.57;;;5.07;;
80776;SDS011;70169;51.262;6.336;2023-06-26T06:01:52;9.13;;;4.88;;
80776;SDS011;70169;51.262;6.336;2023-06-26T06:04:07;9.70;;;5.07;;
80776;SDS011;70169;51.262;6.336;2023-06-26T06:06:22;10.90;;;5.53;;
80776;SDS011;70169;51.262;6.336;2023-06-26T06:08:38;10.63;;;5.40;;
80776;SDS011;70169;51.262;6.336;2023-06-26T06:10:53;11.20;;;5.30;;
80776;SDS011;70169;51.262;6.336;2023-06-26T06:13:08;9.65;;;4.72;;
80776;SDS011;70169;51.262;6.336;2023-06-26T06:15:24;9.23;;;4.90;;
80776;SDS011;70169;51.262;6.336;2023-06-26T06:17:39;8.53;;;4.83;;
80776;SDS011;70169;51.262;6.336;2023-06-26T06:19:54;10.97;;;5.50;;
80776;SDS011;70169;51.262;6.336;2023-06-26T06:22:10;7.63;;;4.90;;
80776;SDS011;70169;51.262;6.336;2023-06-26T06:24:25;8.52;;;5.00;;
80776;SDS011;70169;51.262;6.336;2023-06-26T06:26:40;6.90;;;4.70;;
80776;SDS011;70169;51.262;6.336;2023-06-26T06:28:55;10.63;;;5.23;;
80776;SDS011;70169;51.262;6.336;2023-06-26T06:31:11;9.67;;;5.23;;
80776;SDS011;70169;51.262;6.336;2023-06-26T06:33:26;8.17;;;5.03;;
80776;SDS011;70169;51.262;6.336;2023-06-26T06:35:41;7.30;;;4.70;;
80776;SDS011;70169;51.262;6.336;2023-06-26T06:37:57;7.10;;;4.37;;
80776;SDS011;70169;51.262;6.336;2023-06-26T06:40:12;10.25;;;5.32;;
80776;SDS011;70169;51.262;6.336;2023-06-26T06:42:28;8.23;;;4.85;;
80776;SDS011;70169;51.262;6.336;2023-06-26T06:44:43;11.20;;;5.10;;
80776;SDS011;70169;51.262;6.336;2023-06-26T06:46:58;8.73;;;4.90;;
80776;SDS011;70169;51.262;6.336;2023-06-26T06:49:14;9.70;;;5.20;;
80776;SDS011;70169;51.262;6.336;2023-06-26T06:51:29;9.32;;;5.47;;
80776;SDS011;70169;51.262;6.336;2023-06-26T06:53:45;8.60;;;4.93;;
80776;SDS011;70169;51.262;6.336;2023-06-26T06:56:00;10.03;;;5.10;;
80776;SDS011;70169;51.262;6.336;2023-06-26T06:58:15;8.40;;;4.80;;
80776;SDS011;70169;51.262;6.336;2023-06-26T07:00:37;7.88;;;4.55;;
80776;SDS011;70169;51.262;6.336;2023-06-26T07:02:52;10.37;;;4.80;;
80776;SDS011;70169;51.262;6.336;2023-06-26T07:05:08;10.60;;;5.27;;
80776;SDS011;70169;51.262;6.336;2023-06-26T07:07:24;9.20;;;5.07;;
80776;SDS011;70169;51.262;6.336;2023-06-26T07:09:45;11.45;;;5.40;;
80776;SDS011;70169;51.262;6.336;2023-06-26T07:12:00;9.47;;;5.23;;
80776;SDS011;70169;51.262;6.336;2023-06-26T07:14:16;10.43;;;5.33;;
80776;SDS011;70169;51.262;6.336;2023-06-26T07:16:31;8.87;;;5.30;;
80776;SDS011;70169;51.262;6.336;2023-06-26T07:18:46;10.30;;;5.00;;
80776;SDS011;70169;51.262;6.336;2023-06-26T07:21:02;8.97;;;5.00;;
80776;SDS011;70169;51.262;6.336;2023-06-26T07:23:17;8.03;;;4.33;;
80776;SDS011;70169;51.262;6.336;2023-06-26T07:25:32;9.97;;;5.23;;
80776;SDS011;70169;51.262;6.336;2023-06-26T07:27:48;8.53;;;4.23;;
80776;SDS011;70169;51.262;6.336;2023-06-26T07:30:03;8.90;;;4.00;;
80776;SDS011;70169;51.262;6.336;2023-06-26T07:32:19;9.38;;;4.75;;
80776;SDS011;70169;51.262;6.336;2023-06-26T07:34:34;8.90;;;5.13;;
80776;SDS011;70169;51.262;6.336;2023-06-26T07:36:49;10.00;;;4.57;;
80776;SDS011;70169;51.262;6.336;2023-06-26T07:39:04;9.57;;;4.50;;
80776;SDS011;70169;51.262;6.336;2023-06-26T07:41:20;7.33;;;3.90;;
80776;SDS011;70169;51.262;6.336;2023-06-26T07:43:35;9.43;;;4.67;;
80776;SDS011;70169;51.262;6.336;2023-06-26T07:45:50;7.57;;;3.83;;
80776;SDS011;70169;51.262;6.336;2023-06-26T07:48:08;9.98;;;4.70;;
80776;SDS011;70169;51.262;6.336;2023-06-26T07:50:24;11.40;;;4.22;;
80776;SDS011;70169;51.262;6.336;2023-06-26T07:52:39;8.93;;;4.70;;
80776;SDS011;70169;51.262;6.336;2023-06-26T07:54:55;8.87;;;3.83;;
80776;SDS011;70169;51.262;6.336;2023-06-26T07:57:11;8.40;;;3.90;;
80776;SDS011;70169;51.262;6.336;2023-06-26T07:59:28;10.60;;;4.38;;
80776;SDS011;70169;51.262;6.336;2023-06-26T08:01:44;10.18;;;4.10;;
80776;SDS011;70169;51.262;6.336;2023-06-26T08:03:59;8.23;;;4.30;;
80776;SDS011;70169;51.262;6.336;2023-06-26T08:06:15;8.47;;;4.57;;
80776;SDS011;70169;51.262;6.336;2023-06-26T08:08:30;9.23;;;4.45;;
80776;SDS011;70169;51.262;6.336;2023-06-26T08:10:46;7.15;;;4.30;;
80776;SDS011;70169;51.262;6.336;2023-06-26T08:13:01;6.47;;;4.03;;
80776;SDS011;70169;51.262;6.336;2023-06-26T08:15:16;8.27;;;4.50;;
80776;SDS011;70169;51.262;6.336;2023-06-26T08:17:33;12.15;;;4.82;;
80776;SDS011;70169;51.262;6.336;2023-06-26T08:22:05;5.57;;;3.87;;
80776;SDS011;70169;51.262;6.336;2023-06-26T08:24:20;9.90;;;4.22;;
80776;SDS011;70169;51.262;6.336;2023-06-26T08:26:36;10.93;;;4.17;;
80776;SDS011;70169;51.262;6.336;2023-06-26T08:28:52;7.25;;;4.25;;
80776;SDS011;70169;51.262;6.336;2023-06-26T08:31:07;9.27;;;4.10;;
80776;SDS011;70169;51.262;6.336;2023-06-26T08:33:22;8.97;;;4.00;;
80776;SDS011;70169;51.262;6.336;2023-06-26T08:35:38;8.30;;;4.03;;
80776;SDS011;70169;51.262;6.336;2023-06-26T08:37:53;6.82;;;3.45;;
80776;SDS011;70169;51.262;6.336;2023-06-26T08:40:09;7.20;;;3.80;;
80776;SDS011;70169;51.262;6.336;2023-06-26T08:42:25;6.97;;;3.60;;
80776;SDS011;70169;51.262;6.336;2023-06-26T08:44:40;6.65;;;3.10;;
80776;SDS011;70169;51.262;6.336;2023-06-26T08:46:56;8.05;;;3.85;;
80776;SDS011;70169;51.262;6.336;2023-06-26T08:51:57;6.40;;;3.33;;
80776;SDS011;70169;51.262;6.336;2023-06-26T08:54:17;7.78;;;3.20;;
80776;SDS011;70169;51.262;6.336;2023-06-26T08:56:38;6.47;;;3.50;;
80776;SDS011;70169;51.262;6.336;2023-06-26T08:58:56;7.63;;;3.47;;
80776;SDS011;70169;51.262;6.336;2023-06-26T09:01:12;8.43;;;3.22;;
80776;SDS011;70169;51.262;6.336;2023-06-26T09:03:28;6.90;;;3.20;;
80776;SDS011;70169;51.262;6.336;2023-06-26T09:05:43;6.55;;;3.63;;
80776;SDS011;70169;51.262;6.336;2023-06-26T09:07:59;7.73;;;3.43;;
80776;SDS011;70169;51.262;6.336;2023-06-26T09:10:14;8.27;;;4.40;;
80776;SDS011;70169;51.262;6.336;2023-06-26T09:12:29;8.20;;;3.60;;
80776;SDS011;70169;51.262;6.336;2023-06-26T09:14:46;9.02;;;3.75;;
80776;SDS011;70169;51.262;6.336;2023-06-26T09:17:02;7.43;;;3.42;;
80776;SDS011;70169;51.262;6.336;2023-06-26T09:19:18;9.23;;;3.47;;
80776;SDS011;70169;51.262;6.336;2023-06-26T09:21:33;6.90;;;3.38;;
80776;SDS011;70169;51.262;6.336;2023-06-26T09:23:49;6.93;;;3.10;;
80776;SDS011;70169;51.262;6.336;2023-06-26T09:26:05;6.32;;;3.40;;
80776;SDS011;70169;51.262;6.336;2023-06-26T09:28:21;6.03;;;3.15;;
80776;SDS011;70169;51.262;6.336;2023-06-26T09:30:36;7.45;;;3.10;;
80776;SDS011;70169;51.262;6.336;2023-06-26T09:32:52;5.97;;;2.90;;
80776;SDS011;70169;51.262;6.336;2023-06-26T09:35:09;5.07;;;2.63;;
80776;SDS011;70169;51.262;6.336;2023-06-26T09:37:25;5.63;;;2.97;;
80776;SDS011;70169;51.262;6.336;2023-06-26T09:39:41;5.05;;;2.42;;
80776;SDS011;70169;51.262;6.336;2023-06-26T09:41:56;9.67;;;5.73;;
80776;SDS011;70169;51.262;6.336;2023-06-26T09:44:13;10.02;;;5.93;;
80776;SDS011;70169;51.262;6.336;2023-06-26T09:46:29;7.50;;;4.63;;
80776;SDS011;70169;51.262;6.336;2023-06-26T09:48:46;5.57;;;3.60;;
80776;SDS011;70169;51.262;6.336;2023-06-26T09:51:01;5.38;;;2.55;;
80776;SDS011;70169;51.262;6.336;2023-06-26T09:53:17;5.38;;;2.35;;
80776;SDS011;70169;51.262;6.336;2023-06-26T09:55:36;7.38;;;2.38;;
80776;SDS011;70169;51.262;6.336;2023-06-26T09:57:52;8.88;;;2.72;;
80776;SDS011;70169;51.262;6.336;2023-06-26T10:00:11;5.90;;;2.30;;
80776;SDS011;70169;51.262;6.336;2023-06-26T10:02:28;8.93;;;2.50;;
80776;SDS011;70169;51.262;6.336;2023-06-26T10:04:43;4.85;;;2.60;;
80776;SDS011;70169;51.262;6.336;2023-06-26T10:07:00;5.22;;;2.92;;
80776;SDS011;70169;51.262;6.336;2023-06-26T10:09:17;5.00;;;2.50;;
80776;SDS011;70169;51.262;6.336;2023-06-26T10:11:37;4.03;;;2.25;;
80776;SDS011;70169;51.262;6.336;2023-06-26T10:13:59;5.40;;;2.58;;
80776;SDS011;70169;51.262;6.336;2023-06-26T10:18:38;4.75;;;2.38;;
80776;SDS011;70169;51.262;6.336;2023-06-26T10:20:55;3.72;;;1.95;;
80776;SDS011;70169;51.262;6.336;2023-06-26T10:23:12;8.38;;;1.98;;
80776;SDS011;70169;51.262;6.336;2023-06-26T10:25:30;4.32;;;2.00;;
80776;SDS011;70169;51.262;6.336;2023-06-26T10:27:56;3.13;;;1.80;;
80776;SDS011;70169;51.262;6.336;2023-06-26T10:32:32;3.70;;;1.67;;
80776;SDS011;70169;51.262;6.336;2023-06-26T10:34:48;4.47;;;2.17;;
80776;SDS011;70169;51.262;6.336;2023-06-26T10:37:04;4.75;;;1.73;;
80776;SDS011;70169;51.262;6.336;2023-06-26T10:39:20;3.85;;;1.58;;
80776;SDS011;70169;51.262;6.336;2023-06-26T10:41:36;4.07;;;2.10;;
80776;SDS011;70169;51.262;6.336;2023-06-26T10:46:14;4.75;;;1.80;;
80776;SDS011;70169;51.262;6.336;2023-06-26T10:48:30;3.05;;;1.73;;
80776;SDS011;70169;51.262;6.336;2023-06-26T10:50:49;4.37;;;1.90;;
80776;SDS011;70169;51.262;6.336;2023-06-26T10:58:34;3.60;;;1.88;;
80776;SDS011;70169;51.262;6.336;2023-06-26T11:03:26;4.28;;;1.88;;
80776;SDS011;70169;51.262;6.336;2023-06-26T11:05:46;3.90;;;1.92;;
80776;SDS011;70169;51.262;6.336;2023-06-26T11:08:38;3.75;;;2.00;;
80776;SDS011;70169;51.262;6.336;2023-06-26T11:11:02;4.15;;;1.80;;
80776;SDS011;70169;51.262;6.336;2023-06-26T11:13:18;3.40;;;1.77;;
80776;SDS011;70169;51.262;6.336;2023-06-26T11:15:34;3.20;;;1.75;;
80776;SDS011;70169;51.262;6.336;2023-06-26T11:17:50;3.55;;;1.65;;
80776;SDS011;70169;51.262;6.336;2023-06-26T11:20:06;3.85;;;1.65;;
80776;SDS011;70169;51.262;6.336;2023-06-26T11:22:25;3.97;;;1.45;;
80776;SDS011;70169;51.262;6.336;2023-06-26T11:24:41;2.63;;;1.50;;
80776;SDS011;70169;51.262;6.336;2023-06-26T11:27:01;4.05;;;1.67;;
80776;SDS011;70169;51.262;6.336;2023-06-26T11:29:18;3.53;;;1.75;;
80776;SDS011;70169;51.262;6.336;2023-06-26T11:31:34;5.20;;;1.57;;
80776;SDS011;70169;51.262;6.336;2023-06-26T11:33:52;3.15;;;1.55;;
80776;SDS011;70169;51.262;6.336;2023-06-26T11:36:09;4.72;;;1.40;;
80776;SDS011;70169;51.262;6.336;2023-06-26T11:38:24;2.83;;;1.00;;
80776;SDS011;70169;51.262;6.336;2023-06-26T11:40:39;4.20;;;1.67;;
80776;SDS011;70169;51.262;6.336;2023-06-26T11:42:55;3.67;;;1.65;;
80776;SDS011;70169;51.262;6.336;2023-06-26T11:45:10;3.70;;;1.42;;
80776;SDS011;70169;51.262;6.336;2023-06-26T11:47:25;3.60;;;1.20;;
80776;SDS011;70169;51.262;6.336;2023-06-26T11:49:47;3.35;;;1.10;;
80776;SDS011;70169;51.262;6.336;2023-06-26T11:52:04;4.32;;;1.42;;
80776;SDS011;70169;51.262;6.336;2023-06-26T11:54:23;4.43;;;1.45;;
80776;SDS011;70169;51.262;6.336;2023-06-26T11:56:40;3.05;;;1.40;;
80776;SDS011;70169;51.262;6.336;2023-06-26T11:58:56;4.63;;;1.43;;
80776;SDS011;70169;51.262;6.336;2023-06-26T12:01:18;3.83;;;1.35;;
80776;SDS011;70169;51.262;6.336;2023-06-26T12:03:33;3.85;;;1.50;;
80776;SDS011;70169;51.262;6.336;2023-06-26T12:05:49;3.53;;;1.38;;
80776;SDS011;70169;51.262;6.336;2023-06-26T12:08:07;3.53;;;1.20;;
80776;SDS011;70169;51.262;6.336;2023-06-26T12:10:23;5.25;;;1.45;;
80776;SDS011;70169;51.262;6.336;2023-06-26T12:12:38;3.47;;;1.63;;
80776;SDS011;70169;51.262;6.336;2023-06-26T12:14:54;3.20;;;1.50;;
80776;SDS011;70169;51.262;6.336;2023-06-26T12:17:11;4.35;;;1.52;;
80776;SDS011;70169;51.262;6.336;2023-06-26T12:19:28;4.00;;;1.70;;
80776;SDS011;70169;51.262;6.336;2023-06-26T12:21:45;3.47;;;1.50;;
80776;SDS011;70169;51.262;6.336;2023-06-26T12:24:02;3.22;;;1.45;;
80776;SDS011;70169;51.262;6.336;2023-06-26T12:26:21;5.25;;;1.38;;
80776;SDS011;70169;51.262;6.336;2023-06-26T12:28:36;4.35;;;1.58;;
80776;SDS011;70169;51.262;6.336;2023-06-26T12:33:30;4.47;;;1.30;;
80776;SDS011;70169;51.262;6.336;2023-06-26T12:35:46;3.67;;;1.30;;
80776;SDS011;70169;51.262;6.336;2023-06-26T12:38:01;3.67;;;1.45;;
80776;SDS011;70169;51.262;6.336;2023-06-26T12:40:24;6.78;;;1.65;;
80776;SDS011;70169;51.262;6.336;2023-06-26T12:42:40;2.63;;;1.47;;
80776;SDS011;70169;51.262;6.336;2023-06-26T12:44:55;3.23;;;1.33;;
80776;SDS011;70169;51.262;6.336;2023-06-26T12:47:14;5.07;;;1.45;;
80776;SDS011;70169;51.262;6.336;2023-06-26T12:49:34;2.58;;;1.30;;
80776;SDS011;70169;51.262;6.336;2023-06-26T12:51:50;3.63;;;1.50;;
80776;SDS011;70169;51.262;6.336;2023-06-26T12:54:06;2.83;;;1.10;;
80776;SDS011;70169;51.262;6.336;2023-06-26T12:56:21;3.25;;;1.08;;
80776;SDS011;70169;51.262;6.336;2023-06-26T12:58:37;3.17;;;1.20;;
80776;SDS011;70169;51.262;6.336;2023-06-26T13:00:53;4.13;;;1.73;;
80776;SDS011;70169;51.262;6.336;2023-06-26T13:03:08;4.00;;;2.05;;
80776;SDS011;70169;51.262;6.336;2023-06-26T13:05:24;3.57;;;1.30;;
80776;SDS011;70169;51.262;6.336;2023-06-26T13:07:39;2.70;;;1.07;;
80776;SDS011;70169;51.262;6.336;2023-06-26T13:09:54;2.57;;;1.30;;
80776;SDS011;70169;51.262;6.336;2023-06-26T13:12:10;3.30;;;1.70;;
80776;SDS011;70169;51.262;6.336;2023-06-26T13:14:26;5.57;;;1.70;;
80776;SDS011;70169;51.262;6.336;2023-06-26T13:16:41;3.40;;;1.40;;
80776;SDS011;70169;51.262;6.336;2023-06-26T13:18:58;2.87;;;1.33;;
80776;SDS011;70169;51.262;6.336;2023-06-26T13:21:14;4.57;;;1.50;;
80776;SDS011;70169;51.262;6.336;2023-06-26T13:23:29;3.58;;;1.30;;
80776;SDS011;70169;51.262;6.336;2023-06-26T13:25:45;3.20;;;1.30;;
80776;SDS011;70169;51.262;6.336;2023-06-26T13:28:00;6.05;;;1.50;;
80776;SDS011;70169;51.262;6.336;2023-06-26T13:30:16;5.90;;;1.40;;
80776;SDS011;70169;51.262;6.336;2023-06-26T13:32:31;3.97;;;1.50;;
80776;SDS011;70169;51.262;6.336;2023-06-26T13:34:46;3.50;;;1.33;;
80776;SDS011;70169;51.262;6.336;2023-06-26T13:37:03;3.58;;;1.08;;
80776;SDS011;70169;51.262;6.336;2023-06-26T13:39:18;3.85;;;1.63;;
80776;SDS011;70169;51.262;6.336;2023-06-26T13:41:34;4.20;;;1.50;;
80776;SDS011;70169;51.262;6.336;2023-06-26T13:43:49;2.97;;;1.50;;
80776;SDS011;70169;51.262;6.336;2023-06-26T13:46:04;5.00;;;1.60;;
80776;SDS011;70169;51.262;6.336;2023-06-26T13:48:20;2.90;;;1.23;;
80776;SDS011;70169;51.262;6.336;2023-06-26T13:50:35;5.75;;;1.77;;
80776;SDS011;70169;51.262;6.336;2023-06-26T13:52:51;3.75;;;1.67;;
80776;SDS011;70169;51.262;6.336;2023-06-26T13:55:06;2.97;;;1.20;;
80776;SDS011;70169;51.262;6.336;2023-06-26T13:57:22;4.03;;;1.60;;
80776;SDS011;70169;51.262;6.336;2023-06-26T13:59:38;2.23;;;1.37;;
80776;SDS011;70169;51.262;6.336;2023-06-26T14:01:56;2.55;;;0.98;;
80776;SDS011;70169;51.262;6.336;2023-06-26T14:04:12;2.90;;;1.33;;
80776;SDS011;70169;51.262;6.336;2023-06-26T14:06:27;4.50;;;1.37;;